sensor_id;sensor_type;location;lat;lon;timestamp;pressure;altitude;pressure_sealevel;temperature;humidity
69306;BME280;56427;51.580;4.656;2024-01-25T00:01:39;102916.53;;;7.61;100.00
69306;BME280;56427;51.580;4.656;2024-01-25T00:04:05;102917.38;;;7.58;100.00
69306;BME280;56427;51.580;4.656;2024-01-25T00:06:30;102927.75;;;7.55;100.00
69306;BME280;56427;51.580;4.656;2024-01-25T00:08:55;102923.44;;;7.49;100.00
69306;BME280;56427;51.580;4.656;2024-01-25T00:11:21;102919.16;;;7.36;100.00
69306;BME280;56427;51.580;4.656;2024-01-25T00:13:46;102911.41;;;7.33;100.00
69306;BME280;56427;51.580;4.656;2024-01-25T00:16:11;102913.16;;;7.29;100.00
69306;BME280;56427;51.580;4.656;2024-01-25T00:18:36;102911.44;;;7.24;100.00
69306;BME280;56427;51.580;4.656;2024-01-25T00:21:02;102905.41;;;7.17;100.00
69306;BME280;56427;51.580;4.656;2024-01-25T00:23:27;102906.25;;;7.15;100.00
69306;BME280;56427;51.580;4.656;2024-01-25T00:25:53;102912.28;;;7.14;100.00
69306;BME280;56427;51.580;4.656;2024-01-25T00:28:19;102919.16;;;7.06;100.00
69306;BME280;56427;51.580;4.656;2024-01-25T00:30:44;102917.44;;;7.06;100.00
69306;BME280;56427;51.580;4.656;2024-01-25T00:33:09;102908.84;;;7.04;100.00
69306;BME280;56427;51.580;4.656;2024-01-25T00:35:35;102906.28;;;6.98;100.00
69306;BME280;56427;51.580;4.656;2024-01-25T00:38:01;102911.41;;;6.87;100.00
69306;BME280;56427;51.580;4.656;2024-01-25T00:40:27;102907.09;;;6.85;100.00
69306;BME280;56427;51.580;4.656;2024-01-25T00:42:53;102912.25;;;6.79;100.00
69306;BME280;56427;51.580;4.656;2024-01-25T00:45:22;102907.97;;;6.78;100.00
69306;BME280;56427;51.580;4.656;2024-01-25T00:47:49;102920.88;;;6.74;100.00
69306;BME280;56427;51.580;4.656;2024-01-25T00:50:15;102914.81;;;6.65;100.00
69306;BME280;56427;51.580;4.656;2024-01-25T00:52:49;102903.66;;;6.64;100.00
69306;BME280;56427;51.580;4.656;2024-01-25T00:55:15;102905.34;;;6.58;100.00
69306;BME280;56427;51.580;4.656;2024-01-25T00:57:41;102919.09;;;6.54;100.00
69306;BME280;56427;51.580;4.656;2024-01-25T01:00:07;102921.66;;;6.54;100.00
69306;BME280;56427;51.580;4.656;2024-01-25T01:02:42;102917.38;;;6.51;100.00
69306;BME280;56427;51.580;4.656;2024-01-25T01:05:08;102911.38;;;6.47;100.00
69306;BME280;56427;51.580;4.656;2024-01-25T01:07:34;102913.06;;;6.36;100.00
69306;BME280;56427;51.580;4.656;2024-01-25T01:10:00;102913.91;;;6.40;100.00
69306;BME280;56427;51.580;4.656;2024-01-25T01:12:25;102918.19;;;6.35;100.00
69306;BME280;56427;51.580;4.656;2024-01-25T01:14:51;102907.00;;;6.28;100.00
69306;BME280;56427;51.580;4.656;2024-01-25T01:17:16;102912.19;;;6.30;100.00
69306;BME280;56427;51.580;4.656;2024-01-25T01:19:44;102920.75;;;6.30;100.00
69306;BME280;56427;51.580;4.656;2024-01-25T01:22:10;102927.63;;;6.30;100.00
69306;BME280;56427;51.580;4.656;2024-01-25T01:24:35;102923.28;;;6.21;100.00
69306;BME280;56427;51.580;4.656;2024-01-25T01:27:01;102927.63;;;6.24;100.00
69306;BME280;56427;51.580;4.656;2024-01-25T01:29:26;102942.19;;;6.17;100.00
69306;BME280;56427;51.580;4.656;2024-01-25T01:31:51;102940.44;;;6.16;100.00
69306;BME280;56427;51.580;4.656;2024-01-25T01:34:17;102942.13;;;6.06;100.00
69306;BME280;56427;51.580;4.656;2024-01-25T01:36:43;102938.69;;;6.07;100.00
69306;BME280;56427;51.580;4.656;2024-01-25T01:39:09;102957.56;;;6.00;100.00
69306;BME280;56427;51.580;4.656;2024-01-25T01:41:34;102962.69;;;5.94;100.00
69306;BME280;56427;51.580;4.656;2024-01-25T01:44:00;102959.25;;;5.93;100.00
69306;BME280;56427;51.580;4.656;2024-01-25T01:46:34;102949.75;;;5.88;100.00
69306;BME280;56427;51.580;4.656;2024-01-25T01:49:00;102945.41;;;5.84;100.00
69306;BME280;56427;51.580;4.656;2024-01-25T01:51:26;102952.31;;;5.86;100.00
69306;BME280;56427;51.580;4.656;2024-01-25T01:53:55;102967.69;;;5.77;100.00
69306;BME280;56427;51.580;4.656;2024-01-25T01:56:22;102974.56;;;5.72;100.00
69306;BME280;56427;51.580;4.656;2024-01-25T01:58:48;102966.84;;;5.78;100.00
69306;BME280;56427;51.580;4.656;2024-01-25T02:01:14;102959.94;;;5.71;100.00
69306;BME280;56427;51.580;4.656;2024-01-25T02:03:40;102961.63;;;5.66;100.00
69306;BME280;56427;51.580;4.656;2024-01-25T02:06:06;102966.75;;;5.61;100.00
69306;BME280;56427;51.580;4.656;2024-01-25T02:08:32;102961.59;;;5.60;100.00
69306;BME280;56427;51.580;4.656;2024-01-25T02:10:58;102957.28;;;5.59;100.00
69306;BME280;56427;51.580;4.656;2024-01-25T02:13:23;102971.00;;;5.58;100.00
69306;BME280;56427;51.580;4.656;2024-01-25T02:15:49;102971.00;;;5.58;100.00
69306;BME280;56427;51.580;4.656;2024-01-25T02:18:14;102980.41;;;5.53;100.00
69306;BME280;56427;51.580;4.656;2024-01-25T02:20:40;102978.72;;;5.56;100.00
69306;BME280;56427;51.580;4.656;2024-01-25T02:23:06;102977.88;;;5.56;100.00
69306;BME280;56427;51.580;4.656;2024-01-25T02:25:32;102988.06;;;5.44;100.00
69306;BME280;56427;51.580;4.656;2024-01-25T02:27:57;102993.22;;;5.44;100.00
69306;BME280;56427;51.580;4.656;2024-01-25T02:30:23;102987.22;;;5.45;100.00
69306;BME280;56427;51.580;4.656;2024-01-25T02:32:48;102983.72;;;5.38;100.00
69306;BME280;56427;51.580;4.656;2024-01-25T02:35:13;102993.09;;;5.31;100.00
69306;BME280;56427;51.580;4.656;2024-01-25T02:37:39;102990.47;;;5.25;100.00
69306;BME280;56427;51.580;4.656;2024-01-25T02:40:05;102982.75;;;5.25;100.00
69306;BME280;56427;51.580;4.656;2024-01-25T02:42:30;102976.75;;;5.28;100.00
69306;BME280;56427;51.580;4.656;2024-01-25T02:44:56;102982.72;;;5.19;100.00
69306;BME280;56427;51.580;4.656;2024-01-25T02:47:21;102974.13;;;5.17;100.00
69306;BME280;56427;51.580;4.656;2024-01-25T02:49:47;102975.84;;;5.18;100.00
69306;BME280;56427;51.580;4.656;2024-01-25T02:52:12;102975.81;;;5.15;100.00
69306;BME280;56427;51.580;4.656;2024-01-25T02:54:38;102987.69;;;5.01;100.00
69306;BME280;56427;51.580;4.656;2024-01-25T02:57:04;102990.28;;;5.04;100.00
69306;BME280;56427;51.580;4.656;2024-01-25T02:59:29;102993.66;;;4.98;100.00
69306;BME280;56427;51.580;4.656;2024-01-25T03:01:55;102997.91;;;4.95;100.00
69306;BME280;56427;51.580;4.656;2024-01-25T03:04:20;102994.53;;;4.97;100.00
69306;BME280;56427;51.580;4.656;2024-01-25T03:06:46;102991.88;;;4.93;100.00
69306;BME280;56427;51.580;4.656;2024-01-25T03:09:11;102991.03;;;4.92;100.00
69306;BME280;56427;51.580;4.656;2024-01-25T03:11:36;102999.47;;;4.80;100.00
69306;BME280;56427;51.580;4.656;2024-01-25T03:14:02;102995.31;;;4.92;100.00
69306;BME280;56427;51.580;4.656;2024-01-25T03:16:27;102994.38;;;4.85;100.00
69306;BME280;56427;51.580;4.656;2024-01-25T03:18:53;102997.84;;;4.88;100.00
69306;BME280;56427;51.580;4.656;2024-01-25T03:21:18;102996.97;;;4.86;100.00
69306;BME280;56427;51.580;4.656;2024-01-25T03:23:44;102992.63;;;4.82;100.00
69306;BME280;56427;51.580;4.656;2024-01-25T03:26:10;103000.34;;;4.82;100.00
69306;BME280;56427;51.580;4.656;2024-01-25T03:28:35;102996.03;;;4.78;100.00
69306;BME280;56427;51.580;4.656;2024-01-25T03:31:01;102993.53;;;4.86;100.00
69306;BME280;56427;51.580;4.656;2024-01-25T03:33:26;102991.78;;;4.83;100.00
69306;BME280;56427;51.580;4.656;2024-01-25T03:35:53;102979.78;;;4.81;100.00
69306;BME280;56427;51.580;4.656;2024-01-25T03:38:19;102977.91;;;4.68;100.00
69306;BME280;56427;51.580;4.656;2024-01-25T03:40:44;102976.94;;;4.58;100.00
69306;BME280;56427;51.580;4.656;2024-01-25T03:43:09;102986.34;;;4.54;100.00
69306;BME280;56427;51.580;4.656;2024-01-25T03:45:35;102994.94;;;4.58;100.00
69306;BME280;56427;51.580;4.656;2024-01-25T03:48:00;102988.97;;;4.59;100.00
69306;BME280;56427;51.580;4.656;2024-01-25T03:50:26;102983.72;;;4.51;100.00
69306;BME280;56427;51.580;4.656;2024-01-25T03:52:51;102996.63;;;4.56;100.00
69306;BME280;56427;51.580;4.656;2024-01-25T03:55:17;103001.69;;;4.48;100.00
69306;BME280;56427;51.580;4.656;2024-01-25T03:57:44;103000.84;;;4.51;100.00
69306;BME280;56427;51.580;4.656;2024-01-25T04:00:10;102999.97;;;4.47;100.00
69306;BME280;56427;51.580;4.656;2024-01-25T04:02:36;102999.19;;;4.54;100.00
69306;BME280;56427;51.580;4.656;2024-01-25T04:05:02;102992.25;;;4.49;100.00
69306;BME280;56427;51.580;4.656;2024-01-25T04:07:27;102993.13;;;4.48;100.00
69306;BME280;56427;51.580;4.656;2024-01-25T04:09:53;102991.28;;;4.39;100.00
69306;BME280;56427;51.580;4.656;2024-01-25T04:12:18;102992.06;;;4.33;100.00
69306;BME280;56427;51.580;4.656;2024-01-25T04:14:44;102983.53;;;4.36;100.00
69306;BME280;56427;51.580;4.656;2024-01-25T04:17:09;102984.34;;;4.32;100.00
69306;BME280;56427;51.580;4.656;2024-01-25T04:19:38;102976.63;;;4.30;100.00
69306;BME280;56427;51.580;4.656;2024-01-25T04:22:03;102974.91;;;4.29;100.00
69306;BME280;56427;51.580;4.656;2024-01-25T04:24:29;102990.41;;;4.36;100.00
69306;BME280;56427;51.580;4.656;2024-01-25T04:26:54;102984.41;;;4.37;100.00
69306;BME280;56427;51.580;4.656;2024-01-25T04:29:20;102993.00;;;4.39;100.00
69306;BME280;56427;51.580;4.656;2024-01-25T04:31:46;102987.81;;;4.34;100.00
69306;BME280;56427;51.580;4.656;2024-01-25T04:34:14;102986.91;;;4.32;100.00
69306;BME280;56427;51.580;4.656;2024-01-25T04:36:39;102980.06;;;4.32;100.00
69306;BME280;56427;51.580;4.656;2024-01-25T04:39:05;102975.78;;;4.31;100.00
69306;BME280;56427;51.580;4.656;2024-01-25T04:41:31;102975.84;;;4.36;100.00
69306;BME280;56427;51.580;4.656;2024-01-25T04:43:56;102982.69;;;4.34;100.00
69306;BME280;56427;51.580;4.656;2024-01-25T04:46:21;102987.69;;;4.26;100.00
69306;BME280;56427;51.580;4.656;2024-01-25T04:48:47;102986.75;;;4.18;100.00
69306;BME280;56427;51.580;4.656;2024-01-25T04:51:19;102987.25;;;3.91;100.00
69306;BME280;56427;51.580;4.656;2024-01-25T04:53:48;102985.84;;;3.56;100.00
69306;BME280;56427;51.580;4.656;2024-01-25T04:56:13;102997.28;;;3.24;100.00
69306;BME280;56427;51.580;4.656;2024-01-25T04:58:38;102986.78;;;3.09;100.00
69306;BME280;56427;51.580;4.656;2024-01-25T05:01:04;102995.22;;;3.02;100.00
69306;BME280;56427;51.580;4.656;2024-01-25T05:03:32;102988.50;;;3.09;100.00
69306;BME280;56427;51.580;4.656;2024-01-25T05:05:57;102992.03;;;3.15;100.00
69306;BME280;56427;51.580;4.656;2024-01-25T05:08:23;102990.66;;;3.36;100.00
69306;BME280;56427;51.580;4.656;2024-01-25T05:10:48;102986.47;;;3.41;100.00
69306;BME280;56427;51.580;4.656;2024-01-25T05:13:14;102990.00;;;3.47;100.00
69306;BME280;56427;51.580;4.656;2024-01-25T05:15:39;102990.03;;;3.50;100.00
69306;BME280;56427;51.580;4.656;2024-01-25T05:18:06;102996.00;;;3.48;100.00
69306;BME280;56427;51.580;4.656;2024-01-25T05:20:31;102998.69;;;3.57;100.00
69306;BME280;56427;51.580;4.656;2024-01-25T05:23:01;103003.03;;;3.60;100.00
69306;BME280;56427;51.580;4.656;2024-01-25T05:25:28;103000.50;;;3.63;100.00
69306;BME280;56427;51.580;4.656;2024-01-25T05:27:54;103002.19;;;3.61;100.00
69306;BME280;56427;51.580;4.656;2024-01-25T05:30:21;102991.06;;;3.62;100.00
69306;BME280;56427;51.580;4.656;2024-01-25T05:32:46;102990.22;;;3.61;100.00
69306;BME280;56427;51.580;4.656;2024-01-25T05:35:13;103003.03;;;3.61;100.00
69306;BME280;56427;51.580;4.656;2024-01-25T05:37:39;103006.69;;;3.24;100.00
69306;BME280;56427;51.580;4.656;2024-01-25T05:40:05;103004.25;;;2.83;100.00
69306;BME280;56427;51.580;4.656;2024-01-25T05:42:30;103012.00;;;2.88;100.00
69306;BME280;56427;51.580;4.656;2024-01-25T05:44:57;102996.53;;;2.82;100.00
69306;BME280;56427;51.580;4.656;2024-01-25T05:47:23;103006.28;;;2.56;100.00
69306;BME280;56427;51.580;4.656;2024-01-25T05:49:48;103012.09;;;2.47;100.00
69306;BME280;56427;51.580;4.656;2024-01-25T05:52:15;103011.97;;;2.42;100.00
69306;BME280;56427;51.580;4.656;2024-01-25T05:54:41;103012.72;;;2.37;100.00
69306;BME280;56427;51.580;4.656;2024-01-25T05:57:06;103006.13;;;2.48;100.00
69306;BME280;56427;51.580;4.656;2024-01-25T05:59:32;103006.16;;;2.51;100.00
69306;BME280;56427;51.580;4.656;2024-01-25T06:01:57;102999.50;;;2.58;100.00
69306;BME280;56427;51.580;4.656;2024-01-25T06:04:23;102992.91;;;2.70;100.00
69306;BME280;56427;51.580;4.656;2024-01-25T06:06:52;103004.56;;;2.56;100.00
69306;BME280;56427;51.580;4.656;2024-01-25T06:09:17;103006.47;;;2.65;100.00
69306;BME280;56427;51.580;4.656;2024-01-25T06:11:43;103001.41;;;2.69;100.00
69306;BME280;56427;51.580;4.656;2024-01-25T06:14:09;102994.88;;;2.84;100.00
69306;BME280;56427;51.580;4.656;2024-01-25T06:16:34;102992.09;;;2.73;100.00
69306;BME280;56427;51.580;4.656;2024-01-25T06:18:59;102995.59;;;2.77;100.00
69306;BME280;56427;51.580;4.656;2024-01-25T06:21:26;102996.28;;;2.69;100.00
69306;BME280;56427;51.580;4.656;2024-01-25T06:23:52;102994.34;;;2.15;100.00
69306;BME280;56427;51.580;4.656;2024-01-25T06:26:17;102986.66;;;2.15;100.00
69306;BME280;56427;51.580;4.656;2024-01-25T06:28:42;103001.03;;;2.09;100.00
69306;BME280;56427;51.580;4.656;2024-01-25T06:31:08;103006.28;;;2.15;100.00
69306;BME280;56427;51.580;4.656;2024-01-25T06:33:33;103000.81;;;2.39;100.00
69306;BME280;56427;51.580;4.656;2024-01-25T06:35:59;102998.72;;;2.62;100.00
69306;BME280;56427;51.580;4.656;2024-01-25T06:38:25;103001.63;;;2.80;100.00
69306;BME280;56427;51.580;4.656;2024-01-25T06:40:50;103008.72;;;2.95;100.00
69306;BME280;56427;51.580;4.656;2024-01-25T06:43:16;103009.66;;;2.97;100.00
69306;BME280;56427;51.580;4.656;2024-01-25T06:45:41;103006.28;;;3.01;100.00
69306;BME280;56427;51.580;4.656;2024-01-25T06:48:07;102993.66;;;2.65;100.00
69306;BME280;56427;51.580;4.656;2024-01-25T06:50:35;102989.38;;;2.23;100.00
69306;BME280;56427;51.580;4.656;2024-01-25T06:53:01;102996.91;;;2.15;100.00
69306;BME280;56427;51.580;4.656;2024-01-25T06:55:26;103009.81;;;2.20;100.00
69306;BME280;56427;51.580;4.656;2024-01-25T06:57:52;103006.00;;;2.42;100.00
69306;BME280;56427;51.580;4.656;2024-01-25T07:00:18;103003.09;;;2.67;100.00
69306;BME280;56427;51.580;4.656;2024-01-25T07:02:46;103011.97;;;2.85;100.00
69306;BME280;56427;51.580;4.656;2024-01-25T07:05:12;103012.13;;;2.94;100.00
69306;BME280;56427;51.580;4.656;2024-01-25T07:07:37;103005.63;;;3.11;100.00
69306;BME280;56427;51.580;4.656;2024-01-25T07:10:05;103004.03;;;3.18;100.00
69306;BME280;56427;51.580;4.656;2024-01-25T07:12:30;103022.03;;;3.21;100.00
69306;BME280;56427;51.580;4.656;2024-01-25T07:14:56;103030.72;;;3.29;100.00
69306;BME280;56427;51.580;4.656;2024-01-25T07:17:21;103030.50;;;3.15;100.00
69306;BME280;56427;51.580;4.656;2024-01-25T07:19:47;103031.38;;;3.17;100.00
69306;BME280;56427;51.580;4.656;2024-01-25T07:22:12;103032.72;;;2.97;100.00
69306;BME280;56427;51.580;4.656;2024-01-25T07:24:40;103028.34;;;2.91;100.00
69306;BME280;56427;51.580;4.656;2024-01-25T07:27:05;103023.63;;;3.14;100.00
69306;BME280;56427;51.580;4.656;2024-01-25T07:29:30;103019.59;;;3.27;100.00
69306;BME280;56427;51.580;4.656;2024-01-25T07:31:56;103018.09;;;3.40;100.00
69306;BME280;56427;51.580;4.656;2024-01-25T07:34:21;103024.28;;;3.53;100.00
69306;BME280;56427;51.580;4.656;2024-01-25T07:36:47;103032.00;;;3.54;100.00
69306;BME280;56427;51.580;4.656;2024-01-25T07:39:12;103028.72;;;3.64;100.00
69306;BME280;56427;51.580;4.656;2024-01-25T07:41:37;103034.06;;;3.76;100.00
69306;BME280;56427;51.580;4.656;2024-01-25T07:44:03;103036.69;;;3.78;100.00
69306;BME280;56427;51.580;4.656;2024-01-25T07:46:28;103030.72;;;3.81;100.00
69306;BME280;56427;51.580;4.656;2024-01-25T07:48:54;103040.34;;;3.95;100.00
69306;BME280;56427;51.580;4.656;2024-01-25T07:51:19;103028.41;;;3.97;100.00
69306;BME280;56427;51.580;4.656;2024-01-25T07:53:46;103013.81;;;3.95;100.00
69306;BME280;56427;51.580;4.656;2024-01-25T07:56:11;103013.00;;;3.97;100.00
69306;BME280;56427;51.580;4.656;2024-01-25T07:58:37;103017.47;;;4.12;100.00
69306;BME280;56427;51.580;4.656;2024-01-25T08:01:06;103011.47;;;4.12;100.00
69306;BME280;56427;51.580;4.656;2024-01-25T08:03:32;102993.56;;;4.16;100.00
69306;BME280;56427;51.580;4.656;2024-01-25T08:05:59;102996.25;;;4.27;100.00
69306;BME280;56427;51.580;4.656;2024-01-25T08:08:24;103011.66;;;4.25;100.00
69306;BME280;56427;51.580;4.656;2024-01-25T08:10:50;103016.97;;;4.39;100.00
69306;BME280;56427;51.580;4.656;2024-01-25T08:13:15;103012.69;;;4.40;100.00
69306;BME280;56427;51.580;4.656;2024-01-25T08:15:40;103017.75;;;4.33;100.00
69306;BME280;56427;51.580;4.656;2024-01-25T08:18:06;103007.59;;;4.43;100.00
69306;BME280;56427;51.580;4.656;2024-01-25T08:20:31;103003.69;;;4.04;100.00
69306;BME280;56427;51.580;4.656;2024-01-25T08:22:57;102997.78;;;4.11;100.00
69306;BME280;56427;51.580;4.656;2024-01-25T08:25:22;102998.78;;;4.22;100.00
69306;BME280;56427;51.580;4.656;2024-01-25T08:27:48;103006.66;;;4.36;100.00
69306;BME280;56427;51.580;4.656;2024-01-25T08:30:14;103018.03;;;4.53;100.00
69306;BME280;56427;51.580;4.656;2024-01-25T08:32:40;103016.47;;;4.68;100.00
69306;BME280;56427;51.580;4.656;2024-01-25T08:35:05;103001.19;;;4.81;100.00
69306;BME280;56427;51.580;4.656;2024-01-25T08:37:31;103005.47;;;4.81;100.00
69306;BME280;56427;51.580;4.656;2024-01-25T08:39:56;103019.34;;;4.94;100.00
69306;BME280;56427;51.580;4.656;2024-01-25T08:42:21;103028.97;;;5.13;100.00
69306;BME280;56427;51.580;4.656;2024-01-25T08:44:47;103024.66;;;5.12;100.00
69306;BME280;56427;51.580;4.656;2024-01-25T08:47:17;103022.16;;;5.21;100.00
69306;BME280;56427;51.580;4.656;2024-01-25T08:49:42;103020.53;;;5.29;100.00
69306;BME280;56427;51.580;4.656;2024-01-25T08:52:08;103017.00;;;5.20;100.00
69306;BME280;56427;51.580;4.656;2024-01-25T08:54:33;103017.81;;;5.14;100.00
69306;BME280;56427;51.580;4.656;2024-01-25T08:56:59;103029.03;;;5.19;100.00
69306;BME280;56427;51.580;4.656;2024-01-25T08:59:25;103023.06;;;5.23;100.00
69306;BME280;56427;51.580;4.656;2024-01-25T09:01:52;103015.41;;;5.32;100.00
69306;BME280;56427;51.580;4.656;2024-01-25T09:04:17;103019.75;;;5.36;100.00
69306;BME280;56427;51.580;4.656;2024-01-25T09:06:43;103006.94;;;5.43;100.00
69306;BME280;56427;51.580;4.656;2024-01-25T09:09:09;103012.03;;;5.39;100.00
69306;BME280;56427;51.580;4.656;2024-01-25T09:11:36;103006.09;;;5.47;100.00
69306;BME280;56427;51.580;4.656;2024-01-25T09:14:01;103005.28;;;5.52;100.00
69306;BME280;56427;51.580;4.656;2024-01-25T09:16:26;103009.75;;;5.75;100.00
69306;BME280;56427;51.580;4.656;2024-01-25T09:18:52;103012.41;;;5.85;100.00
69306;BME280;56427;51.580;4.656;2024-01-25T09:21:17;103022.59;;;5.72;100.00
69306;BME280;56427;51.580;4.656;2024-01-25T09:23:42;103015.81;;;5.84;100.00
69306;BME280;56427;51.580;4.656;2024-01-25T09:26:08;103021.81;;;5.79;100.00
69306;BME280;56427;51.580;4.656;2024-01-25T09:28:34;103021.06;;;5.97;100.00
69306;BME280;56427;51.580;4.656;2024-01-25T09:30:59;103008.31;;;6.12;100.00
69306;BME280;56427;51.580;4.656;2024-01-25T09:33:24;103005.66;;;6.01;100.00
69306;BME280;56427;51.580;4.656;2024-01-25T09:35:50;103004.78;;;6.01;100.00
69306;BME280;56427;51.580;4.656;2024-01-25T09:38:15;103003.91;;;5.97;100.00
69306;BME280;56427;51.580;4.656;2024-01-25T09:40:41;102996.22;;;6.00;100.00
69306;BME280;56427;51.580;4.656;2024-01-25T09:43:07;103004.88;;;6.13;100.00
69306;BME280;56427;51.580;4.656;2024-01-25T09:45:33;103015.31;;;6.39;100.00
69306;BME280;56427;51.580;4.656;2024-01-25T09:48:00;103008.38;;;6.26;100.00
69306;BME280;56427;51.580;4.656;2024-01-25T09:50:30;103009.28;;;6.35;100.00
69306;BME280;56427;51.580;4.656;2024-01-25T09:52:59;103004.13;;;6.35;100.00
69306;BME280;56427;51.580;4.656;2024-01-25T09:55:26;102993.84;;;6.46;100.00
69306;BME280;56427;51.580;4.656;2024-01-25T09:57:55;102987.03;;;6.54;100.00
69306;BME280;56427;51.580;4.656;2024-01-25T10:00:24;102981.03;;;6.75;100.00
69306;BME280;56427;51.580;4.656;2024-01-25T10:02:50;102973.25;;;6.60;100.00
69306;BME280;56427;51.580;4.656;2024-01-25T10:05:16;102976.72;;;6.71;100.00
69306;BME280;56427;51.580;4.656;2024-01-25T10:07:43;102961.25;;;6.68;100.00
69306;BME280;56427;51.580;4.656;2024-01-25T10:10:10;102968.97;;;6.72;100.00
69306;BME280;56427;51.580;4.656;2024-01-25T10:12:37;102968.16;;;6.80;100.00
69306;BME280;56427;51.580;4.656;2024-01-25T10:15:04;102968.16;;;6.78;100.00
69306;BME280;56427;51.580;4.656;2024-01-25T10:17:30;102970.75;;;6.90;100.00
69306;BME280;56427;51.580;4.656;2024-01-25T10:19:56;102971.63;;;6.94;100.00
69306;BME280;56427;51.580;4.656;2024-01-25T10:22:21;102972.47;;;6.94;100.00
69306;BME280;56427;51.580;4.656;2024-01-25T10:24:48;102977.63;;;6.97;100.00
69306;BME280;56427;51.580;4.656;2024-01-25T10:27:16;102971.66;;;7.23;100.00
69306;BME280;56427;51.580;4.656;2024-01-25T10:29:42;102964.75;;;7.20;100.00
69306;BME280;56427;51.580;4.656;2024-01-25T10:32:10;102976.81;;;7.32;100.00
69306;BME280;56427;51.580;4.656;2024-01-25T10:34:36;102977.69;;;7.36;100.00
69306;BME280;56427;51.580;4.656;2024-01-25T10:37:06;102975.94;;;7.39;100.00
69306;BME280;56427;51.580;4.656;2024-01-25T10:39:33;102982.81;;;7.46;100.00
69306;BME280;56427;51.580;4.656;2024-01-25T10:41:59;102975.97;;;7.36;100.00
69306;BME280;56427;51.580;4.656;2024-01-25T10:44:25;102975.91;;;7.65;100.00
69306;BME280;56427;51.580;4.656;2024-01-25T10:46:50;102968.16;;;7.76;100.00
69306;BME280;56427;51.580;4.656;2024-01-25T10:49:17;102971.59;;;7.75;100.00
69306;BME280;56427;51.580;4.656;2024-01-25T10:51:44;102950.91;;;7.89;100.00
69306;BME280;56427;51.580;4.656;2024-01-25T10:54:12;102947.41;;;7.97;100.00
69306;BME280;56427;51.580;4.656;2024-01-25T10:56:41;102948.34;;;7.81;100.00
69306;BME280;56427;51.580;4.656;2024-01-25T10:59:07;102945.69;;;8.01;100.00
69306;BME280;56427;51.580;4.656;2024-01-25T11:01:33;102944.00;;;7.98;100.00
69306;BME280;56427;51.580;4.656;2024-01-25T11:03:59;102936.13;;;8.23;100.00
69306;BME280;56427;51.580;4.656;2024-01-25T11:06:26;102933.50;;;8.29;100.00
69306;BME280;56427;51.580;4.656;2024-01-25T11:08:52;102937.88;;;8.24;100.00
69306;BME280;56427;51.580;4.656;2024-01-25T11:11:18;102935.34;;;8.02;100.00
69306;BME280;56427;51.580;4.656;2024-01-25T11:13:44;102931.81;;;8.22;100.00
69306;BME280;56427;51.580;4.656;2024-01-25T11:16:17;102931.78;;;8.32;100.00
69306;BME280;56427;51.580;4.656;2024-01-25T11:18:50;102923.13;;;8.35;99.99
69306;BME280;56427;51.580;4.656;2024-01-25T11:21:26;102915.31;;;8.55;100.00
69306;BME280;56427;51.580;4.656;2024-01-25T11:24:02;102920.50;;;8.55;99.38
69306;BME280;56427;51.580;4.656;2024-01-25T11:26:28;102923.06;;;8.56;98.93
69306;BME280;56427;51.580;4.656;2024-01-25T11:28:54;102910.84;;;8.77;98.82
69306;BME280;56427;51.580;4.656;2024-01-25T11:31:21;102916.81;;;8.88;97.38
69306;BME280;56427;51.580;4.656;2024-01-25T11:33:47;102919.47;;;8.77;98.06
69306;BME280;56427;51.580;4.656;2024-01-25T11:36:13;102919.38;;;8.89;97.75
69306;BME280;56427;51.580;4.656;2024-01-25T11:38:39;102906.41;;;8.94;97.46
69306;BME280;56427;51.580;4.656;2024-01-25T11:41:04;102898.63;;;8.96;97.45
69306;BME280;56427;51.580;4.656;2024-01-25T11:43:30;102886.69;;;8.78;97.26
69306;BME280;56427;51.580;4.656;2024-01-25T11:45:55;102872.69;;;8.99;97.00
69306;BME280;56427;51.580;4.656;2024-01-25T11:48:21;102866.88;;;8.72;97.89
69306;BME280;56427;51.580;4.656;2024-01-25T11:50:46;102871.06;;;8.88;97.75
69306;BME280;56427;51.580;4.656;2024-01-25T11:53:12;102860.91;;;8.65;97.91
69306;BME280;56427;51.580;4.656;2024-01-25T11:55:37;102874.53;;;8.89;97.74
69306;BME280;56427;51.580;4.656;2024-01-25T11:58:03;102870.09;;;9.02;98.20
69306;BME280;56427;51.580;4.656;2024-01-25T12:00:29;102869.41;;;8.83;98.43
69306;BME280;56427;51.580;4.656;2024-01-25T12:02:54;102867.69;;;8.82;98.92
69306;BME280;56427;51.580;4.656;2024-01-25T12:05:20;102862.34;;;9.00;98.35
69306;BME280;56427;51.580;4.656;2024-01-25T12:07:45;102847.63;;;9.04;98.66
69306;BME280;56427;51.580;4.656;2024-01-25T12:10:15;102851.94;;;9.06;97.95
69306;BME280;56427;51.580;4.656;2024-01-25T12:12:42;102846.00;;;8.92;98.02
69306;BME280;56427;51.580;4.656;2024-01-25T12:15:07;102842.59;;;8.88;98.97
69306;BME280;56427;51.580;4.656;2024-01-25T12:17:34;102840.81;;;8.95;99.11
69306;BME280;56427;51.580;4.656;2024-01-25T12:20:04;102833.09;;;8.89;99.13
69306;BME280;56427;51.580;4.656;2024-01-25T12:22:36;102822.03;;;8.72;99.78
69306;BME280;56427;51.580;4.656;2024-01-25T12:25:02;102831.53;;;8.74;100.00
69306;BME280;56427;51.580;4.656;2024-01-25T12:27:28;102825.31;;;8.92;100.00
69306;BME280;56427;51.580;4.656;2024-01-25T12:29:56;102816.78;;;8.82;100.00
69306;BME280;56427;51.580;4.656;2024-01-25T12:32:21;102809.00;;;8.84;100.00
69306;BME280;56427;51.580;4.656;2024-01-25T12:34:57;102802.97;;;8.82;100.00
69306;BME280;56427;51.580;4.656;2024-01-25T12:37:23;102796.03;;;8.87;100.00
69306;BME280;56427;51.580;4.656;2024-01-25T12:39:50;102802.13;;;8.80;100.00
69306;BME280;56427;51.580;4.656;2024-01-25T12:42:17;102796.25;;;8.61;100.00
69306;BME280;56427;51.580;4.656;2024-01-25T12:44:42;102793.63;;;8.69;100.00